sensor_id;sensor_type;location;lat;lon;timestamp;pressure;altitude;pressure_sealevel;temperature;humidity
2405;BME280;1213;43.206;27.922;2024-03-23T00:55:11;101622.91;;;3.93;100.00
2405;BME280;1213;43.206;27.922;2024-03-23T00:57:37;101615.28;;;3.86;100.00
2405;BME280;1213;43.206;27.922;2024-03-23T01:00:03;101616.53;;;3.70;100.00
2405;BME280;1213;43.206;27.922;2024-03-23T01:02:31;101613.72;;;3.79;100.00
2405;BME280;1213;43.206;27.922;2024-03-23T01:04:56;101613.63;;;3.82;100.00
2405;BME280;1213;43.206;27.922;2024-03-23T01:07:21;101609.47;;;3.75;100.00
2405;BME280;1213;43.206;27.922;2024-03-23T01:09:47;101615.69;;;3.70;100.00
2405;BME280;1213;43.206;27.922;2024-03-23T01:12:12;101613.06;;;3.71;100.00
2405;BME280;1213;43.206;27.922;2024-03-23T01:14:38;101614.06;;;3.66;100.00
2405;BME280;1213;43.206;27.922;2024-03-23T01:17:03;101607.22;;;3.61;100.00
2405;BME280;1213;43.206;27.922;2024-03-23T01:19:29;101618.47;;;3.62;100.00
2405;BME280;1213;43.206;27.922;2024-03-23T01:21:54;101610.78;;;3.57;100.00
2405;BME280;1213;43.206;27.922;2024-03-23T01:24:20;101611.06;;;3.45;100.00
2405;BME280;1213;43.206;27.922;2024-03-23T01:26:45;101605.75;;;3.51;100.00
2405;BME280;1213;43.206;27.922;2024-03-23T01:29:10;101600.63;;;3.48;100.00
2405;BME280;1213;43.206;27.922;2024-03-23T01:31:36;101604.16;;;3.44;100.00
2405;BME280;1213;43.206;27.922;2024-03-23T01:34:01;101605.28;;;3.34;100.00
2405;BME280;1213;43.206;27.922;2024-03-23T01:36:28;101601.78;;;3.35;100.00
2405;BME280;1213;43.206;27.922;2024-03-23T01:38:53;101601.72;;;3.38;100.00
2405;BME280;1213;43.206;27.922;2024-03-23T01:41:19;101602.72;;;3.31;100.00
2405;BME280;1213;43.206;27.922;2024-03-23T01:43:45;101610.53;;;3.31;100.00
2405;BME280;1213;43.206;27.922;2024-03-23T01:46:10;101607.34;;;3.20;100.00
2405;BME280;1213;43.206;27.922;2024-03-23T01:48:36;101612.66;;;3.14;100.00
2405;BME280;1213;43.206;27.922;2024-03-23T01:51:01;101604.22;;;3.04;100.00
2405;BME280;1213;43.206;27.922;2024-03-23T01:53:27;101600.56;;;3.13;100.00
2405;BME280;1213;43.206;27.922;2024-03-23T01:55:54;101602.41;;;3.08;100.00
2405;BME280;1213;43.206;27.922;2024-03-23T01:58:19;101603.38;;;3.03;100.00
2405;BME280;1213;43.206;27.922;2024-03-23T02:00:45;101601.59;;;3.05;100.00
2405;BME280;1213;43.206;27.922;2024-03-23T02:03:27;101598.22;;;3.00;100.00
2405;BME280;1213;43.206;27.922;2024-03-23T02:05:53;101595.59;;;3.02;100.00
2405;BME280;1213;43.206;27.922;2024-03-23T02:08:23;101598.09;;;3.06;100.00
2405;BME280;1213;43.206;27.922;2024-03-23T02:10:49;101601.66;;;3.02;100.00
2405;BME280;1213;43.206;27.922;2024-03-23T02:13:16;101604.44;;;2.95;100.00
2405;BME280;1213;43.206;27.922;2024-03-23T02:15:41;101606.09;;;2.97;100.00
2405;BME280;1213;43.206;27.922;2024-03-23T02:18:08;101609.66;;;2.92;100.00
2405;BME280;1213;43.206;27.922;2024-03-23T02:20:34;101606.13;;;2.96;100.00
2405;BME280;1213;43.206;27.922;2024-03-23T02:23:00;101606.25;;;2.90;100.00
2405;BME280;1213;43.206;27.922;2024-03-23T02:25:25;101599.53;;;2.79;100.00
2405;BME280;1213;43.206;27.922;2024-03-23T02:27:51;101597.81;;;2.78;100.00
2405;BME280;1213;43.206;27.922;2024-03-23T02:30:18;101600.34;;;2.83;100.00
2405;BME280;1213;43.206;27.922;2024-03-23T02:32:43;101599.63;;;2.75;100.00
2405;BME280;1213;43.206;27.922;2024-03-23T02:35:09;101607.31;;;2.81;100.00
2405;BME280;1213;43.206;27.922;2024-03-23T02:37:34;101603.84;;;2.81;100.00
2405;BME280;1213;43.206;27.922;2024-03-23T02:40:00;101599.53;;;2.81;100.00
2405;BME280;1213;43.206;27.922;2024-03-23T02:42:25;101597.78;;;2.82;100.00
2405;BME280;1213;43.206;27.922;2024-03-23T02:44:51;101591.84;;;2.75;100.00
2405;BME280;1213;43.206;27.922;2024-03-23T02:47:16;101598.75;;;2.76;100.00
2405;BME280;1213;43.206;27.922;2024-03-23T02:49:42;101594.59;;;2.67;100.00
2405;BME280;1213;43.206;27.922;2024-03-23T02:52:08;101595.47;;;2.68;100.00
2405;BME280;1213;43.206;27.922;2024-03-23T02:54:33;101596.38;;;2.64;100.00
2405;BME280;1213;43.206;27.922;2024-03-23T02:56:59;101599.03;;;2.62;100.00
2405;BME280;1213;43.206;27.922;2024-03-23T02:59:24;101595.69;;;2.57;100.00
2405;BME280;1213;43.206;27.922;2024-03-23T03:01:49;101594.81;;;2.58;100.00
2405;BME280;1213;43.206;27.922;2024-03-23T03:04:15;101591.41;;;2.55;100.00
2405;BME280;1213;43.206;27.922;2024-03-23T03:06:40;101590.50;;;2.56;100.00
2405;BME280;1213;43.206;27.922;2024-03-23T03:09:06;101581.06;;;2.53;100.00
2405;BME280;1213;43.206;27.922;2024-03-23T03:11:31;101580.16;;;2.54;100.00
2405;BME280;1213;43.206;27.922;2024-03-23T03:13:57;101579.28;;;2.55;100.00
2405;BME280;1213;43.206;27.922;2024-03-23T03:16:25;101575.09;;;2.49;100.00
2405;BME280;1213;43.206;27.922;2024-03-23T03:18:50;101573.19;;;2.58;100.00
2405;BME280;1213;43.206;27.922;2024-03-23T03:21:17;101582.72;;;2.56;100.00
2405;BME280;1213;43.206;27.922;2024-03-23T03:23:44;101570.75;;;2.50;100.00
2405;BME280;1213;43.206;27.922;2024-03-23T03:26:09;101580.06;;;2.60;100.00
2405;BME280;1213;43.206;27.922;2024-03-23T03:28:35;101583.69;;;2.52;100.00
2405;BME280;1213;43.206;27.922;2024-03-23T03:31:00;101581.03;;;2.55;100.00
2405;BME280;1213;43.206;27.922;2024-03-23T03:33:27;101571.59;;;2.50;100.00
2405;BME280;1213;43.206;27.922;2024-03-23T03:35:52;101580.91;;;2.61;100.00
2405;BME280;1213;43.206;27.922;2024-03-23T03:38:18;101581.91;;;2.54;100.00
2405;BME280;1213;43.206;27.922;2024-03-23T03:40:44;101575.78;;;2.56;100.00
2405;BME280;1213;43.206;27.922;2024-03-23T03:43:09;101575.78;;;2.58;100.00
2405;BME280;1213;43.206;27.922;2024-03-23T03:45:35;101574.91;;;2.59;100.00
2405;BME280;1213;43.206;27.922;2024-03-23T03:48:00;101571.50;;;2.55;100.00
2405;BME280;1213;43.206;27.922;2024-03-23T03:50:26;101583.66;;;2.53;100.00
2405;BME280;1213;43.206;27.922;2024-03-23T03:52:51;101581.06;;;2.53;100.00
2405;BME280;1213;43.206;27.922;2024-03-23T03:55:17;101588.75;;;2.58;100.00
2405;BME280;1213;43.206;27.922;2024-03-23T03:57:42;101582.59;;;2.62;100.00
2405;BME280;1213;43.206;27.922;2024-03-23T04:00:08;101595.66;;;2.59;100.00
2405;BME280;1213;43.206;27.922;2024-03-23T04:02:37;101583.56;;;2.58;100.00
2405;BME280;1213;43.206;27.922;2024-03-23T04:05:03;101590.63;;;2.51;100.00
2405;BME280;1213;43.206;27.922;2024-03-23T04:07:29;101583.53;;;2.59;100.00
2405;BME280;1213;43.206;27.922;2024-03-23T04:09:54;101582.72;;;2.56;100.00
2405;BME280;1213;43.206;27.922;2024-03-23T04:12:20;101587.94;;;2.54;100.00
2405;BME280;1213;43.206;27.922;2024-03-23T04:14:45;101598.44;;;2.49;100.00
2405;BME280;1213;43.206;27.922;2024-03-23T04:17:11;101587.28;;;2.44;100.00
2405;BME280;1213;43.206;27.922;2024-03-23T04:19:37;101601.13;;;2.43;100.00
2405;BME280;1213;43.206;27.922;2024-03-23T04:22:02;101599.44;;;2.41;100.00
2405;BME280;1213;43.206;27.922;2024-03-23T04:24:29;101602.19;;;2.33;100.00
2405;BME280;1213;43.206;27.922;2024-03-23T04:26:54;101602.19;;;2.33;100.00
2405;BME280;1213;43.206;27.922;2024-03-23T04:29:20;101602.25;;;2.30;100.00
2405;BME280;1213;43.206;27.922;2024-03-23T04:31:45;101597.88;;;2.32;100.00
2405;BME280;1213;43.206;27.922;2024-03-23T04:34:11;101598.84;;;2.27;100.00
2405;BME280;1213;43.206;27.922;2024-03-23T04:36:36;101604.06;;;2.25;100.00
2405;BME280;1213;43.206;27.922;2024-03-23T04:39:02;101610.03;;;2.30;100.00
2405;BME280;1213;43.206;27.922;2024-03-23T04:41:27;101606.41;;;2.39;100.00
2405;BME280;1213;43.206;27.922;2024-03-23T04:43:53;101608.94;;;2.42;100.00
2405;BME280;1213;43.206;27.922;2024-03-23T04:46:18;101602.03;;;2.42;100.00
2405;BME280;1213;43.206;27.922;2024-03-23T04:48:45;101610.63;;;2.44;100.00
2405;BME280;1213;43.206;27.922;2024-03-23T04:51:10;101604.38;;;2.55;100.00
2405;BME280;1213;43.206;27.922;2024-03-23T04:53:38;101609.47;;;2.59;100.00
2405;BME280;1213;43.206;27.922;2024-03-23T04:56:03;101605.22;;;2.55;100.00
2405;BME280;1213;43.206;27.922;2024-03-23T04:58:29;101605.84;;;2.68;100.00
2405;BME280;1213;43.206;27.922;2024-03-23T05:00:55;101601.63;;;2.62;100.00
2405;BME280;1213;43.206;27.922;2024-03-23T05:03:21;101595.41;;;2.69;100.00
2405;BME280;1213;43.206;27.922;2024-03-23T05:05:48;101603.16;;;2.71;100.00
2405;BME280;1213;43.206;27.922;2024-03-23T05:08:14;101601.16;;;2.85;100.00
2405;BME280;1213;43.206;27.922;2024-03-23T05:10:41;101604.53;;;2.89;100.00
2405;BME280;1213;43.206;27.922;2024-03-23T05:13:07;101598.19;;;3.02;100.00
2405;BME280;1213;43.206;27.922;2024-03-23T05:15:32;101599.66;;;3.14;100.00
2405;BME280;1213;43.206;27.922;2024-03-23T05:17:57;101599.53;;;3.20;100.00
2405;BME280;1213;43.206;27.922;2024-03-23T05:20:23;101601.25;;;3.21;100.00
2405;BME280;1213;43.206;27.922;2024-03-23T05:22:49;101599.25;;;3.32;100.00
2405;BME280;1213;43.206;27.922;2024-03-23T05:25:15;101600.81;;;3.39;100.00
2405;BME280;1213;43.206;27.922;2024-03-23T05:27:41;101592.00;;;3.46;100.00
2405;BME280;1213;43.206;27.922;2024-03-23T05:30:07;101594.50;;;3.51;100.00
2405;BME280;1213;43.206;27.922;2024-03-23T05:32:34;101602.00;;;3.61;100.00
2405;BME280;1213;43.206;27.922;2024-03-23T05:34:59;101601.03;;;3.67;100.00
2405;BME280;1213;43.206;27.922;2024-03-23T05:37:25;101592.94;;;3.78;100.00
2405;BME280;1213;43.206;27.922;2024-03-23T05:39:51;101590.19;;;3.85;100.00
2405;BME280;1213;43.206;27.922;2024-03-23T05:42:17;101587.41;;;3.93;100.00
2405;BME280;1213;43.206;27.922;2024-03-23T05:44:46;101581.22;;;3.97;100.00
2405;BME280;1213;43.206;27.922;2024-03-23T05:47:12;101580.97;;;4.06;100.00
2405;BME280;1213;43.206;27.922;2024-03-23T05:49:39;101585.97;;;4.14;100.00
2405;BME280;1213;43.206;27.922;2024-03-23T05:52:07;101582.41;;;4.18;100.00
2405;BME280;1213;43.206;27.922;2024-03-23T05:54:33;101580.19;;;4.35;100.00
2405;BME280;1213;43.206;27.922;2024-03-23T05:56:58;101582.16;;;4.58;100.00
2405;BME280;1213;43.206;27.922;2024-03-23T05:59:24;101582.66;;;4.71;100.00
2405;BME280;1213;43.206;27.922;2024-03-23T06:01:50;101579.78;;;4.80;100.00
2405;BME280;1213;43.206;27.922;2024-03-23T06:04:15;101575.97;;;4.92;100.00
2405;BME280;1213;43.206;27.922;2024-03-23T06:06:41;101574.69;;;5.05;100.00
2405;BME280;1213;43.206;27.922;2024-03-23T06:09:06;101576.81;;;5.20;100.00
2405;BME280;1213;43.206;27.922;2024-03-23T06:11:31;101567.78;;;5.32;100.00
2405;BME280;1213;43.206;27.922;2024-03-23T06:13:57;101571.72;;;5.45;100.00
2405;BME280;1213;43.206;27.922;2024-03-23T06:16:22;101565.09;;;5.62;100.00
2405;BME280;1213;43.206;27.922;2024-03-23T06:18:52;101558.34;;;5.81;100.00
2405;BME280;1213;43.206;27.922;2024-03-23T06:21:17;101557.91;;;5.95;100.00
2405;BME280;1213;43.206;27.922;2024-03-23T06:23:43;101553.13;;;6.07;100.00
2405;BME280;1213;43.206;27.922;2024-03-23T06:26:14;101555.06;;;6.27;100.00
2405;BME280;1213;43.206;27.922;2024-03-23T06:28:39;101551.94;;;6.41;100.00
2405;BME280;1213;43.206;27.922;2024-03-23T06:31:09;101546.03;;;6.59;100.00
2405;BME280;1213;43.206;27.922;2024-03-23T06:33:34;101547.22;;;6.74;100.00
2405;BME280;1213;43.206;27.922;2024-03-23T06:36:00;101549.91;;;6.94;100.00
2405;BME280;1213;43.206;27.922;2024-03-23T06:38:25;101542.28;;;7.12;100.00
2405;BME280;1213;43.206;27.922;2024-03-23T06:40:51;101544.28;;;7.27;100.00
2405;BME280;1213;43.206;27.922;2024-03-23T06:43:18;101551.38;;;7.45;100.00
2405;BME280;1213;43.206;27.922;2024-03-23T06:45:43;101546.50;;;7.58;100.00
2405;BME280;1213;43.206;27.922;2024-03-23T06:48:09;101547.81;;;7.68;100.00
2405;BME280;1213;43.206;27.922;2024-03-23T06:50:34;101551.81;;;7.77;100.00
2405;BME280;1213;43.206;27.922;2024-03-23T06:53:01;101550.72;;;7.83;100.00
2405;BME280;1213;43.206;27.922;2024-03-23T06:55:27;101543.53;;;7.88;100.00
2405;BME280;1213;43.206;27.922;2024-03-23T06:57:53;101543.72;;;8.03;100.00
2405;BME280;1213;43.206;27.922;2024-03-23T07:00:19;101537.22;;;8.12;100.00
2405;BME280;1213;43.206;27.922;2024-03-23T07:02:44;101544.47;;;8.26;100.00
2405;BME280;1213;43.206;27.922;2024-03-23T07:05:10;101541.53;;;8.33;100.00
2405;BME280;1213;43.206;27.922;2024-03-23T07:07:37;101541.22;;;8.41;100.00
2405;BME280;1213;43.206;27.922;2024-03-23T07:10:04;101541.28;;;8.58;100.00
2405;BME280;1213;43.206;27.922;2024-03-23T07:12:30;101538.91;;;8.73;100.00
2405;BME280;1213;43.206;27.922;2024-03-23T07:14:56;101542.84;;;8.81;100.00
2405;BME280;1213;43.206;27.922;2024-03-23T07:17:21;101533.94;;;8.85;100.00
2405;BME280;1213;43.206;27.922;2024-03-23T07:19:46;101533.28;;;8.99;100.00
2405;BME280;1213;43.206;27.922;2024-03-23T07:22:12;101526.06;;;9.04;100.00
2405;BME280;1213;43.206;27.922;2024-03-23T07:24:38;101520.72;;;9.25;100.00
2405;BME280;1213;43.206;27.922;2024-03-23T07:27:04;101520.88;;;9.39;100.00
2405;BME280;1213;43.206;27.922;2024-03-23T07:29:30;101520.63;;;9.43;100.00
2405;BME280;1213;43.206;27.922;2024-03-23T07:31:55;101514.97;;;9.53;100.00
2405;BME280;1213;43.206;27.922;2024-03-23T07:34:21;101520.50;;;9.64;100.00
2405;BME280;1213;43.206;27.922;2024-03-23T07:36:46;101514.69;;;9.74;100.00
2405;BME280;1213;43.206;27.922;2024-03-23T07:39:12;101514.41;;;9.81;100.00
2405;BME280;1213;43.206;27.922;2024-03-23T07:41:37;101513.88;;;9.91;100.00
2405;BME280;1213;43.206;27.922;2024-03-23T07:44:03;101511.03;;;10.12;100.00
2405;BME280;1213;43.206;27.922;2024-03-23T07:46:28;101508.34;;;10.31;100.00
2405;BME280;1213;43.206;27.922;2024-03-23T07:48:54;101506.34;;;10.51;100.00
2405;BME280;1213;43.206;27.922;2024-03-23T07:51:23;101506.25;;;10.53;100.00
2405;BME280;1213;43.206;27.922;2024-03-23T07:53:49;101501.00;;;10.69;100.00
2405;BME280;1213;43.206;27.922;2024-03-23T07:56:15;101504.66;;;10.82;100.00
2405;BME280;1213;43.206;27.922;2024-03-23T07:58:41;101501.25;;;10.96;100.00
2405;BME280;1213;43.206;27.922;2024-03-23T08:01:10;101490.44;;;11.16;100.00
2405;BME280;1213;43.206;27.922;2024-03-23T08:03:43;101489.81;;;11.43;100.00
2405;BME280;1213;43.206;27.922;2024-03-23T08:08:34;101487.66;;;11.49;100.00
2405;BME280;1213;43.206;27.922;2024-03-23T08:11:00;101480.72;;;11.62;100.00
2405;BME280;1213;43.206;27.922;2024-03-23T08:13:26;101487.38;;;11.54;100.00
2405;BME280;1213;43.206;27.922;2024-03-23T08:15:52;101480.31;;;11.54;100.00
2405;BME280;1213;43.206;27.922;2024-03-23T08:18:17;101479.81;;;11.78;100.00
2405;BME280;1213;43.206;27.922;2024-03-23T08:20:43;101483.34;;;11.92;100.00
2405;BME280;1213;43.206;27.922;2024-03-23T08:23:08;101481.03;;;12.02;100.00
2405;BME280;1213;43.206;27.922;2024-03-23T08:25:34;101477.72;;;11.99;100.00
2405;BME280;1213;43.206;27.922;2024-03-23T08:28:00;101465.84;;;12.06;100.00
2405;BME280;1213;43.206;27.922;2024-03-23T08:30:26;101465.50;;;12.12;100.00
2405;BME280;1213;43.206;27.922;2024-03-23T08:32:51;101468.88;;;12.28;100.00
2405;BME280;1213;43.206;27.922;2024-03-23T08:35:20;101463.00;;;12.52;100.00
2405;BME280;1213;43.206;27.922;2024-03-23T08:37:45;101458.44;;;12.68;100.00
2405;BME280;1213;43.206;27.922;2024-03-23T08:40:11;101461.28;;;12.65;100.00
2405;BME280;1213;43.206;27.922;2024-03-23T08:42:36;101463.06;;;12.64;100.00
2405;BME280;1213;43.206;27.922;2024-03-23T08:45:02;101454.41;;;12.89;100.00
2405;BME280;1213;43.206;27.922;2024-03-23T08:47:27;101451.50;;;13.06;100.00
2405;BME280;1213;43.206;27.922;2024-03-23T08:49:53;101446.13;;;12.95;100.00
2405;BME280;1213;43.206;27.922;2024-03-23T08:52:18;101457.75;;;13.05;100.00
2405;BME280;1213;43.206;27.922;2024-03-23T08:54:44;101445.66;;;13.16;100.00
2405;BME280;1213;43.206;27.922;2024-03-23T08:57:09;101450.06;;;13.42;100.00
2405;BME280;1213;43.206;27.922;2024-03-23T08:59:35;101448.19;;;13.70;100.00
2405;BME280;1213;43.206;27.922;2024-03-23T09:02:00;101441.53;;;13.89;100.00
2405;BME280;1213;43.206;27.922;2024-03-23T09:04:26;101436.97;;;14.17;100.00
2405;BME280;1213;43.206;27.922;2024-03-23T09:06:51;101441.38;;;14.29;100.00
2405;BME280;1213;43.206;27.922;2024-03-23T09:09:17;101437.81;;;14.18;100.00
2405;BME280;1213;43.206;27.922;2024-03-23T09:11:45;101436.25;;;14.02;100.00
2405;BME280;1213;43.206;27.922;2024-03-23T09:14:10;101440.47;;;13.92;100.00
2405;BME280;1213;43.206;27.922;2024-03-23T09:16:35;101436.88;;;13.93;100.00
2405;BME280;1213;43.206;27.922;2024-03-23T09:19:01;101428.84;;;13.95;100.00
2405;BME280;1213;43.206;27.922;2024-03-23T09:21:26;101435.19;;;13.92;100.00
2405;BME280;1213;43.206;27.922;2024-03-23T09:23:52;101431.78;;;13.90;100.00
2405;BME280;1213;43.206;27.922;2024-03-23T09:26:17;101431.59;;;13.93;100.00
2405;BME280;1213;43.206;27.922;2024-03-23T09:28:43;101427.34;;;14.03;100.00
2405;BME280;1213;43.206;27.922;2024-03-23T09:31:08;101425.06;;;13.99;100.00
2405;BME280;1213;43.206;27.922;2024-03-23T09:33:35;101422.72;;;13.94;100.00
2405;BME280;1213;43.206;27.922;2024-03-23T09:36:04;101413.09;;;14.06;100.00
2405;BME280;1213;43.206;27.922;2024-03-23T09:38:30;101412.69;;;14.49;100.00
2405;BME280;1213;43.206;27.922;2024-03-23T09:40:56;101400.47;;;15.07;100.00
2405;BME280;1213;43.206;27.922;2024-03-23T09:43:22;101392.44;;;15.66;100.00
2405;BME280;1213;43.206;27.922;2024-03-23T09:45:48;101386.66;;;16.05;100.00
2405;BME280;1213;43.206;27.922;2024-03-23T09:48:14;101389.19;;;16.73;100.00
2405;BME280;1213;43.206;27.922;2024-03-23T09:50:41;101385.19;;;16.67;100.00
2405;BME280;1213;43.206;27.922;2024-03-23T09:53:07;101387.59;;;16.27;100.00
2405;BME280;1213;43.206;27.922;2024-03-23T09:55:34;101383.66;;;15.99;100.00
2405;BME280;1213;43.206;27.922;2024-03-23T09:58:03;101379.66;;;16.27;100.00
2405;BME280;1213;43.206;27.922;2024-03-23T10:00:30;101372.97;;;17.50;100.00
2405;BME280;1213;43.206;27.922;2024-03-23T10:02:56;101367.28;;;18.15;100.00
2405;BME280;1213;43.206;27.922;2024-03-23T10:05:23;101365.66;;;17.93;100.00
2405;BME280;1213;43.206;27.922;2024-03-23T10:07:52;101364.47;;;17.77;100.00
2405;BME280;1213;43.206;27.922;2024-03-23T10:10:17;101357.00;;;18.99;97.16
2405;BME280;1213;43.206;27.922;2024-03-23T10:12:45;101352.44;;;19.38;93.59
2405;BME280;1213;43.206;27.922;2024-03-23T10:15:25;101348.19;;;20.20;86.79
2405;BME280;1213;43.206;27.922;2024-03-23T10:17:51;101347.69;;;20.70;81.96
2405;BME280;1213;43.206;27.922;2024-03-23T10:20:24;101338.69;;;20.89;81.65
2405;BME280;1213;43.206;27.922;2024-03-23T10:22:50;101337.75;;;20.98;79.38
2405;BME280;1213;43.206;27.922;2024-03-23T10:25:23;101327.03;;;21.76;73.09
2405;BME280;1213;43.206;27.922;2024-03-23T10:28:01;101319.19;;;22.25;70.94
2405;BME280;1213;43.206;27.922;2024-03-23T10:30:26;101318.72;;;22.37;70.85
2405;BME280;1213;43.206;27.922;2024-03-23T10:33:09;101313.38;;;23.83;67.07
2405;BME280;1213;43.206;27.922;2024-03-23T10:35:37;101312.03;;;24.09;64.54
2405;BME280;1213;43.206;27.922;2024-03-23T10:38:05;101301.69;;;24.75;64.02
2405;BME280;1213;43.206;27.922;2024-03-23T10:40:31;101302.88;;;24.27;62.73
2405;BME280;1213;43.206;27.922;2024-03-23T10:42:59;101307.34;;;23.80;63.38
2405;BME280;1213;43.206;27.922;2024-03-23T10:45:25;101306.19;;;23.75;65.08
2405;BME280;1213;43.206;27.922;2024-03-23T10:47:51;101303.31;;;23.76;65.14
2405;BME280;1213;43.206;27.922;2024-03-23T10:50:17;101300.91;;;23.34;66.13
2405;BME280;1213;43.206;27.922;2024-03-23T10:52:46;101290.66;;;23.46;65.51
2405;BME280;1213;43.206;27.922;2024-03-23T10:55:12;101296.81;;;22.99;64.92
2405;BME280;1213;43.206;27.922;2024-03-23T11:00:16;101279.81;;;24.78;62.07
2405;BME280;1213;43.206;27.922;2024-03-23T11:02:42;101280.84;;;24.54;61.27
2405;BME280;1213;43.206;27.922;2024-03-23T11:07:52;101262.09;;;26.02;58.94
2405;BME280;1213;43.206;27.922;2024-03-23T11:10:29;101259.41;;;26.45;58.33
2405;BME280;1213;43.206;27.922;2024-03-23T11:12:58;101259.16;;;26.89;57.65
2405;BME280;1213;43.206;27.922;2024-03-23T11:15:43;101248.25;;;26.26;56.95
2405;BME280;1213;43.206;27.922;2024-03-23T11:18:09;101253.00;;;26.74;57.67
2405;BME280;1213;43.206;27.922;2024-03-23T11:20:35;101255.91;;;26.29;57.48
2405;BME280;1213;43.206;27.922;2024-03-23T11:23:01;101240.34;;;26.04;57.81
2405;BME280;1213;43.206;27.922;2024-03-23T11:25:28;101243.34;;;26.37;57.46
2405;BME280;1213;43.206;27.922;2024-03-23T11:27:58;101235.78;;;26.68;56.51
2405;BME280;1213;43.206;27.922;2024-03-23T11:30:27;101233.88;;;26.19;55.89
2405;BME280;1213;43.206;27.922;2024-03-23T11:32:56;101231.13;;;26.83;55.53
2405;BME280;1213;43.206;27.922;2024-03-23T11:35:35;101224.63;;;26.50;56.12
2405;BME280;1213;43.206;27.922;2024-03-23T11:38:05;101227.38;;;27.60;54.62
2405;BME280;1213;43.206;27.922;2024-03-23T11:40:38;101224.44;;;27.49;53.98
2405;BME280;1213;43.206;27.922;2024-03-23T11:43:06;101217.06;;;26.95;54.27
2405;BME280;1213;43.206;27.922;2024-03-23T11:45:47;101211.28;;;26.42;54.14
2405;BME280;1213;43.206;27.922;2024-03-23T11:48:16;101216.34;;;25.36;54.55
2405;BME280;1213;43.206;27.922;2024-03-23T11:50:46;101222.91;;;24.75;56.09
2405;BME280;1213;43.206;27.922;2024-03-23T11:55:48;101202.25;;;25.20;53.91
2405;BME280;1213;43.206;27.922;2024-03-23T11:58:14;101194.94;;;25.79;54.29
2405;BME280;1213;43.206;27.922;2024-03-23T12:00:41;101182.53;;;26.06;53.70
2405;BME280;1213;43.206;27.922;2024-03-23T12:03:06;101187.09;;;25.84;53.55
2405;BME280;1213;43.206;27.922;2024-03-23T12:05:33;101175.09;;;27.14;52.83
2405;BME280;1213;43.206;27.922;2024-03-23T12:08:18;101176.44;;;27.37;52.13
2405;BME280;1213;43.206;27.922;2024-03-23T12:10:46;101172.53;;;27.53;50.89
2405;BME280;1213;43.206;27.922;2024-03-23T12:13:15;101167.22;;;27.80;51.07
2405;BME280;1213;43.206;27.922;2024-03-23T12:15:43;101171.16;;;26.88;52.19
2405;BME280;1213;43.206;27.922;2024-03-23T12:18:09;101164.75;;;26.33;53.17
2405;BME280;1213;43.206;27.922;2024-03-23T12:20:35;101169.63;;;24.41;55.16
2405;BME280;1213;43.206;27.922;2024-03-23T12:23:06;101172.53;;;22.84;58.36
2405;BME280;1213;43.206;27.922;2024-03-23T12:25:31;101174.59;;;22.00;59.88
2405;BME280;1213;43.206;27.922;2024-03-23T12:28:00;101163.63;;;21.11;62.57
2405;BME280;1213;43.206;27.922;2024-03-23T12:30:25;101173.25;;;20.08;68.62
2405;BME280;1213;43.206;27.922;2024-03-23T12:32:51;101172.13;;;19.75;74.59
2405;BME280;1213;43.206;27.922;2024-03-23T12:35:16;101172.28;;;19.46;79.87
2405;BME280;1213;43.206;27.922;2024-03-23T12:37:43;101162.03;;;19.51;85.02
2405;BME280;1213;43.206;27.922;2024-03-23T12:40:09;101164.47;;;20.51;82.52
2405;BME280;1213;43.206;27.922;2024-03-23T12:42:34;101152.28;;;21.59;77.27
2405;BME280;1213;43.206;27.922;2024-03-23T12:45:00;101148.00;;;22.07;75.37
2405;BME280;1213;43.206;27.922;2024-03-23T12:47:26;101140.44;;;23.15;72.24
2405;BME280;1213;43.206;27.922;2024-03-23T12:49:52;101132.34;;;24.75;67.98
2405;BME280;1213;43.206;27.922;2024-03-23T12:52:17;101131.50;;;25.77;64.49
2405;BME280;1213;43.206;27.922;2024-03-23T12:54:43;101135.94;;;24.82;65.05
2405;BME280;1213;43.206;27.922;2024-03-23T12:57:08;101132.63;;;23.36;67.99
2405;BME280;1213;43.206;27.922;2024-03-23T12:59:34;101140.28;;;21.96;71.16
2405;BME280;1213;43.206;27.922;2024-03-23T13:02:00;101138.53;;;21.46;75.63
2405;BME280;1213;43.206;27.922;2024-03-23T13:04:26;101122.75;;;22.26;74.39
2405;BME280;1213;43.206;27.922;2024-03-23T13:06:51;101120.06;;;23.60;70.00
2405;BME280;1213;43.206;27.922;2024-03-23T13:09:17;101122.03;;;24.34;67.62
2405;BME280;1213;43.206;27.922;2024-03-23T13:11:42;101117.13;;;24.97;65.71
2405;BME280;1213;43.206;27.922;2024-03-23T13:14:08;101118.28;;;25.60;64.15
2405;BME280;1213;43.206;27.922;2024-03-23T13:16:33;101114.50;;;25.97;63.16
2405;BME280;1213;43.206;27.922;2024-03-23T13:18:58;101102.72;;;26.26;61.54
2405;BME280;1213;43.206;27.922;2024-03-23T13:21:26;101099.09;;;26.69;60.69
2405;BME280;1213;43.206;27.922;2024-03-23T13:23:52;101093.34;;;26.85;59.66
2405;BME280;1213;43.206;27.922;2024-03-23T13:26:17;101092.75;;;26.83;58.54
2405;BME280;1213;43.206;27.922;2024-03-23T13:28:43;101093.31;;;25.88;58.99
2405;BME280;1213;43.206;27.922;2024-03-23T13:31:09;101098.88;;;24.33;61.80
2405;BME280;1213;43.206;27.922;2024-03-23T13:33:35;101099.13;;;22.37;64.97
2405;BME280;1213;43.206;27.922;2024-03-23T13:36:00;101102.44;;;20.99;68.03
2405;BME280;1213;43.206;27.922;2024-03-23T13:38:27;101102.13;;;20.42;70.87
2405;BME280;1213;43.206;27.922;2024-03-23T13:40:57;101097.09;;;20.39;72.44
2405;BME280;1213;43.206;27.922;2024-03-23T13:43:23;101104.44;;;19.93;74.71
2405;BME280;1213;43.206;27.922;2024-03-23T13:45:53;101100.25;;;19.91;74.62
2405;BME280;1213;43.206;27.922;2024-03-23T13:48:23;101094.22;;;20.50;72.51
2405;BME280;1213;43.206;27.922;2024-03-23T13:51:07;101089.78;;;22.17;67.45
2405;BME280;1213;43.206;27.922;2024-03-23T13:53:33;101088.28;;;22.78;65.94
2405;BME280;1213;43.206;27.922;2024-03-23T13:55:58;101079.00;;;23.82;63.92
2405;BME280;1213;43.206;27.922;2024-03-23T13:58:24;101073.19;;;24.60;61.96